Latest Coastal Weather Observations for Ceduna

IDS60701

Issued at 6:35 am CST Wednesday 30 July 2014 (issued every 10 minutes, with the page automatically refreshed every 10 minutes)

About coastal observations | Map of coastal stations | Coastal observations for SA | Marine services | Other Formats
Station Details ID: 018012 Name: CEDUNA AMO Lat: -32.13 Lon: 133.70 Height: 15.3 m
Data from the previous 72 hours. | See also: Recent months at Ceduna
Date/Time
CST
Temp

°C
Wind Pressure Rain
since 9am
mm
Weather Cloud Vis
km
Sea
Height
m
Swell
Dir
 
Speed
knots
Gust
knots
hPa Trend Height
m
Period
s
Dir
30/06:30am 5.5 N 5 5 1021.3 - 0.0 - - 10 - - - -
30/06:00am 6.1 N 5 6 1021.0 S 0.0 Fine Clear 35 - - - -
30/05:30am 6.2 N 7 8 1020.6 - 0.0 - - 10 - - - -
30/05:00am 5.9 N 5 7 1020.7 - 0.0 - - 10 - - - -
30/04:30am 5.6 N 5 5 1020.5 - 0.0 - - 10 - - - -
30/04:00am 5.5 N 5 6 1020.6 - 0.0 - - 10 - - - -
30/03:30am 5.6 N 4 4 1020.8 - 0.0 - - 10 - - - -
30/03:00am 5.5 N 5 5 1021.0 F 0.0 - - 10 - - - -
30/02:30am 6.8 N 3 4 1021.3 - 0.0 - - 10 - - - -
30/02:00am 7.1 NNW 4 4 1021.6 - 0.0 - - 10 - - - -
30/01:30am 6.7 NNW 5 5 1021.8 - 0.0 - - 10 - - - -
30/01:00am 7.2 N 5 6 1021.9 - 0.0 - - 10 - - - -
30/12:30am 7.9 N 5 5 1022.0 - 0.0 - - 10 - - - -
30/12:00am 7.4 NNW 6 6 1022.1 S 0.0 - - 10 - - - -
 
Date/Time
CST
Temp

°C
Wind Pressure Rain
since 9am
mm
Weather Cloud Vis
km
Sea
Height
m
Swell
Dir
 
Speed
knots
Gust
knots
hPa Trend Height
m
Period
s
Dir
29/11:30pm 8.5 NW 6 6 1022.3 - 0.0 - - 10 - - - -
29/11:00pm 8.8 NNW 6 8 1022.2 - 0.0 - - 10 - - - -
29/10:30pm 9.1 NW 7 7 1022.2 - 0.0 - - 10 - - - -
29/10:00pm 9.2 NNW 7 8 1022.2 - 0.0 - - 10 - - - -
29/09:30pm 9.1 NNW 7 8 1022.2 - 0.0 - - 10 - - - -
29/09:00pm 9.4 NNW 6 7 1022.2 R 0.0 - - 10 - - - -
29/08:30pm 9.3 N 6 7 1022.1 - 0.0 - - 10 - - - -
29/08:00pm 13.0 W 7 9 1021.8 - 0.0 - - 10 - - - -
29/07:30pm 13.9 WNW 7 8 1021.6 - 0.0 - - 10 - - - -
29/07:00pm 14.1 W 8 11 1021.4 - 0.0 - - 10 - - - -
29/06:30pm 14.7 W 9 12 1021.1 - 0.0 - - 10 - - - -
29/06:00pm 15.5 W 8 10 1020.9 R 0.0 - - 10 - - - -
29/05:30pm 16.7 WSW 8 10 1020.7 - 0.0 - - 10 - - - -
29/05:00pm 17.9 W 10 15 1020.7 - 0.0 - - 10 - - - -
29/04:30pm 18.7 W 12 15 1020.5 - 0.0 - - 10 - - - -
29/04:00pm 18.9 W 12 16 1020.2 - 0.0 - - 10 - - - -
29/03:30pm 19.6 W 11 16 1020.0 - 0.0 - - 10 - - - -
29/03:00pm 19.6 W 13 18 1019.9 R 0.0 Fine Clear 35 - - - -
29/02:30pm 20.1 WNW 12 16 1019.8 - 0.0 - - 10 - - - -
29/02:00pm 19.8 WNW 11 15 1020.1 - 0.0 - - 10 - - - -
29/01:30pm 19.4 WNW 12 16 1020.5 - 0.0 - - 10 - - - -
29/01:00pm 19.1 WNW 11 14 1021.0 - 0.0 - - 10 - - - -
29/12:30pm 18.7 WNW 11 14 1021.2 - 0.0 - - 10 - - - -
29/12:00pm 18.7 NW 9 12 1021.6 R 0.0 Fine Clear 35 - - - -
29/11:30am 18.0 NW 10 13 1022.1 - 0.0 - - 10 - - - -
29/11:00am 17.3 NW 9 12 1022.3 - 0.0 - - 10 - - - -
29/10:30am 15.8 NW 10 13 1022.3 - 0.0 - - 10 - - - -
29/10:00am 14.7 NW 10 13 1022.0 - 0.0 - - 10 - - - -
29/09:30am 13.5 NNW 10 15 1021.7 - 0.0 - - 10 - - - -
29/09:00am 12.4 NNW 10 13 1021.6 R 0.0 Fine Clear 35 - - - -
29/08:30am 9.9 NNW 8 11 1021.4 - 0.0 - - 10 - - - -
29/08:00am 8.0 NNW 7 9 1021.1 - 0.0 - - 10 - - - -
29/07:30am 7.2 NNW 7 9 1020.9 - 0.0 - - 10 - - - -
29/07:00am 7.3 NNW 6 7 1020.7 - 0.0 - - 10 - - - -
29/06:30am 7.8 NNW 6 8 1020.4 - 0.0 - - 10 - - - -
29/06:00am 7.6 NNW 6 7 1020.2 R 0.0 Fine Clear 30 - - - -
29/05:30am 7.5 NNW 6 8 1019.9 - 0.0 - - 10 - - - -
29/05:00am 7.3 NNW 6 7 1019.7 - 0.0 - - 10 - - - -
29/04:30am 7.7 N 7 9 1019.4 - 0.0 - - 10 - - - -
29/04:00am 8.1 NNW 7 9 1019.7 - 0.0 - - 10 - - - -
29/03:30am 8.6 NNW 6 7 1020.0 - 0.0 - - 10 - - - -
29/03:00am 8.6 NNW 6 7 1020.0 R 0.0 - - 10 - - - -
29/02:30am 8.5 NNW 6 7 1020.0 - 0.0 - - 10 - - - -
29/02:00am 10.2 NW 6 7 1020.0 - 0.0 - - 10 - - - -
29/01:30am 10.6 NW 7 8 1020.2 - 0.0 - - 10 - - - -
29/01:00am 9.9 NW 6 7 1020.1 - 0.0 - - 10 - - - -
29/12:30am 10.3 NW 6 8 1020.2 - 0.0 - - 10 - - - -
29/12:00am 10.5 NW 6 8 1020.3 R 0.0 - - 10 - - - -
 
Date/Time
CST
Temp

°C
Wind Pressure Rain
since 9am
mm
Weather Cloud Vis
km
Sea
Height
m
Swell
Dir
 
Speed
knots
Gust
knots
hPa Trend Height
m
Period
s
Dir
28/11:30pm 11.5 NW 7 8 1020.5 - 0.0 - - 10 - - - -
28/11:00pm 11.6 NW 6 8 1020.4 - 0.0 - - 10 - - - -
28/10:30pm 10.9 NW 5 6 1020.3 - 0.0 - - 10 - - - -
28/10:00pm 10.8 NNW 5 8 1020.3 - 0.0 - - 10 - - - -
28/09:30pm 11.8 WNW 6 7 1020.2 - 0.0 - - 10 - - - -
28/09:00pm 11.2 NW 5 6 1019.9 R 0.0 - Mostly cloudy 10 - - - -
28/08:30pm 11.6 NW 5 6 1019.7 - 0.0 - - 10 - - - -
28/08:00pm 11.8 NNW 5 7 1019.6 - 0.0 - - 10 - - - -
28/07:30pm 12.6 NW 4 5 1019.4 - 0.0 - - 10 - - - -
28/07:00pm 11.7 NNW 3 4 1019.1 - 0.0 - - 10 - - - -
28/06:30pm 12.6 N 4 4 1018.6 - 0.0 - - 10 - - - -
28/06:00pm 14.2 CALM 0 0 1018.6 R 0.0 - Mostly cloudy 10 - - - -
28/05:30pm 14.8 CALM 0 0 1018.2 - 0.0 - - 10 - - - -
28/05:00pm 15.1 SSW 1 3 1018.2 - 0.0 - - 10 - - - -
28/04:30pm 15.2 SSW 4 5 1018.1 - 0.0 - - 10 - - - -
28/04:00pm 15.3 SSW 5 7 1018.1 - 0.0 - - 10 - - - -
28/03:30pm 16.5 SSW 2 5 1018.2 - 0.0 - - 10 - - - -
28/03:00pm 16.4 SW 3 4 1018.2 F 0.0 Distant precip. Mostly cloudy 35 - - - -
28/02:30pm 16.8 SW 4 5 1018.4 - 0.0 - Partly cloudy 10 - - - -
28/02:00pm 17.4 SW 4 5 1018.6 - 0.0 - Partly cloudy 10 - - - -
28/01:30pm 17.7 W 5 8 1019.1 - 0.0 - - 10 - - - -
28/01:00pm 18.6 W 6 9 1019.4 - 0.0 - Partly cloudy 10 - - - -
28/12:30pm 18.2 WNW 6 8 1019.7 - 0.0 - Partly cloudy 10 - - - -
28/12:00pm 16.7 NW 6 7 1020.2 F 0.0 Fine Partly cloudy 30 - - - -
28/11:30am 16.6 NNW 5 7 1020.4 - 0.0 - Mostly clear 10 - - - -
28/11:20am 16.3 NNW 5 7 1020.5 - 0.0 - Partly cloudy 10 - - - -
28/11:00am 15.0 NW 5 7 1020.6 - 0.0 - Mostly cloudy 10 - - - -
28/10:57am 15.1 NW 5 7 1020.7 - 0.0 - Mostly cloudy 6 - - - -
28/10:51am 14.5 NW 5 7 1020.8 - 0.0 Mist Cloudy 5 - - - -
28/10:46am 14.1 NW 5 7 1020.7 - 0.0 Mist Cloudy 3 - - - -
28/10:41am 14.0 NNW 5 7 1020.7 - 0.0 Fog Cloudy 0.8 - - - -
28/10:30am 13.4 NW 6 8 1020.7 - 0.0 - Cloudy 0.1 - - - -
28/10:00am 12.7 NW 6 8 1020.9 - 0.0 Fog Cloudy 0.1 - - - -
28/09:39am 12.7 WNW 7 9 1020.8 - 0.0 Fog Cloudy 0.7 - - - -
28/09:35am 12.7 WNW 7 9 1020.7 - 0.0 Mist Mostly cloudy 3 - - - -
28/09:30am 12.8 WNW 6 9 1020.7 - 0.0 - Mostly cloudy 7 - - - -
28/09:19am 12.8 NW 5 7 1020.6 - 0.0 - Mostly cloudy 10 - - - -
28/09:00am 12.4 NW 4 6 1020.7 F 0.0 Recent fog Partly cloudy 15 - - - -
28/08:56am 12.0 NNW 4 5 1020.6 - 0.0 - Partly cloudy 10 - - - -
28/08:30am 10.4 NNW 1 4 1020.5 - 0.0 - Mostly clear 9 - - - -
28/08:21am 9.7 NW 3 5 1020.6 - 0.0 - - 9 - - - -
28/08:09am 8.3 NNW 4 5 1020.7 - 0.0 Mist - 3 - - - -
28/08:06am 8.2 NNW 4 5 1020.6 - 0.0 Fog - 0.8 - - - -
28/08:00am 7.9 N 4 5 1020.5 - 0.0 Fog - 0.1 - - - -
28/07:43am 7.4 N 5 6 1020.3 - 0.0 Fog Partly cloudy 0.1 - - - -
28/07:30am 7.8 N 5 7 1020.1 - 0.0 - Partly cloudy 0.2 - - - -
28/07:28am 7.5 N 5 6 1020.1 - 0.0 Fog Partly cloudy 0.9 - - - -
28/07:17am 7.5 N 6 6 1020.2 - 0.0 Fog Partly cloudy 8 - - - -
28/07:00am 7.8 N 5 6 1020.1 - 0.0 - Cloudy 10 - - - -
28/06:30am 8.0 N 5 6 1020.1 - 0.0 - Cloudy 10 - - - -
28/06:00am 6.9 N 3 4 1020.0 R 0.0 Mist Partly cloudy 9 - - - -
28/05:30am 7.4 N 5 6 1019.8 - 0.0 - Cloudy 10 - - - -
28/05:00am 5.8 N 4 4 1019.7 - 0.0 - - 10 - - - -
28/04:30am 6.3 N 5 5 1019.7 - 0.0 - - 10 - - - -
28/04:00am 7.4 N 4 6 1019.6 - 0.0 - - 10 - - - -
28/03:30am 7.3 N 5 6 1019.6 - 0.0 - - 10 - - - -
28/03:00am 7.1 NNW 4 5 1019.6 R 0.0 - Mostly clear 10 - - - -
28/02:30am 6.8 NNW 5 6 1019.7 - 0.0 - - 10 - - - -
28/02:00am 6.2 NW 4 5 1019.7 - 0.0 - - 10 - - - -
28/01:30am 6.6 N 5 6 1019.5 - 0.0 - - 10 - - - -
28/01:00am 5.7 NNW 4 5 1019.5 - 0.0 - - 10 - - - -
28/12:30am 5.9 CALM 0 0 1019.6 - 0.0 - - 10 - - - -
28/12:00am 5.3 CALM 0 3 1019.7 F 0.0 - - 10 - - - -
 
Date/Time
CST
Temp

°C
Wind Pressure Rain
since 9am
mm
Weather Cloud Vis
km
Sea
Height
m
Swell
Dir
 
Speed
knots
Gust
knots
hPa Trend Height
m
Period
s
Dir
27/11:30pm 6.4 N 4 5 1019.8 - 0.0 - - 10 - - - -
27/11:00pm 6.9 N 6 7 1020.0 - 0.0 - - 10 - - - -
27/10:30pm 6.9 N 5 6 1020.2 - 0.0 - - 10 - - - -
27/10:00pm 7.7 N 7 8 1020.1 - 0.0 - - 10 - - - -
27/09:30pm 8.3 N 3 4 1020.3 - 0.0 - - 10 - - - -
27/09:00pm 8.3 N 4 5 1020.2 R 0.0 - - 10 - - - -
27/08:30pm 9.1 CALM 0 0 1020.2 - 0.0 - - 10 - - - -
27/08:00pm 9.4 NE 4 5 1019.9 - 0.0 - - 10 - - - -
27/07:30pm 10.6 NNE 5 5 1019.6 - 0.0 - - 10 - - - -
27/07:00pm 13.2 WSW 4 6 1019.5 - 0.0 - - 10 - - - -
27/06:30pm 13.7 WSW 7 8 1019.2 - 0.0 - - 10 - - - -
27/06:00pm 15.2 WSW 7 9 1019.0 R 0.0 - - 10 - - - -
27/05:30pm 17.2 WSW 9 10 1018.9 - 0.0 - - 10 - - - -
27/05:00pm 18.3 SW 8 10 1018.6 - 0.0 - - 10 - - - -
27/04:30pm 21.2 W 8 11 1018.6 - 0.0 - - 10 - - - -
27/04:00pm 21.4 W 9 11 1018.5 - 0.0 - - 10 - - - -
27/03:30pm 22.0 W 9 12 1018.5 - 0.0 - - 10 - - - -
27/03:00pm 22.7 WNW 8 11 1018.5 F 0.0 - - 10 - - - -
27/02:30pm 22.7 NW 10 15 1018.6 - 0.0 - - 10 - - - -
27/02:00pm 22.0 NNW 11 17 1018.9 - 0.0 - - 10 - - - -
27/01:30pm 21.9 NNW 11 14 1019.2 - 0.0 - - 10 - - - -
27/01:00pm 21.1 N 12 16 1019.7 - 0.0 - - 10 - - - -
27/12:30pm 20.6 N 12 17 1020.3 - 0.0 - - 10 - - - -
27/12:00pm 19.9 N 13 17 1021.0 F 0.0 - - 10 - - - -
27/11:30am 18.9 N 16 21 1021.2 - 0.0 - - 10 - - - -
27/11:00am 18.3 N 17 22 1021.6 - 0.0 - - 10 - - - -
27/10:30am 17.7 N 14 19 1022.0 - 0.0 - - 10 - - - -
27/10:00am 16.2 N 16 21 1022.0 - 0.0 - - 10 - - - -
27/09:30am 14.7 N 15 19 1022.2 - 0.0 - - 10 - - - -
27/09:00am 12.6 N 12 16 1022.3 F 0.0 - - 10 - - - -
27/08:30am 11.1 N 12 15 1022.4 - 0.0 - - 10 - - - -
27/08:00am 9.7 N 10 13 1022.4 - 0.0 - - 10 - - - -
27/07:30am 9.4 N 11 14 1022.1 - 0.0 - - 10 - - - -
27/07:00am 9.7 N 12 16 1021.9 - 0.0 - - 10 - - - -

Other Formats:

Comma delimited format used in spreadsheet applications
http://www.bom.gov.au/fwo/IDS60701/IDS60701.94653.axf

JavaScript Object Notation format (JSON) in row-major order
http://www.bom.gov.au/fwo/IDS60701/IDS60701.94653.json